createdAt,value
2023-05-13T00:00:51.324Z,50.875214
2023-05-13T00:01:51.315Z,50.875214
2023-05-13T00:02:51.394Z,50.875214
2023-05-13T00:03:51.363Z,50.875214
2023-05-13T00:04:51.289Z,50.875214
2023-05-13T00:05:51.290Z,50.875214
2023-05-13T00:06:51.282Z,50.875214
2023-05-13T00:07:51.268Z,50.875214
2023-05-13T00:08:51.264Z,50.875214
2023-05-13T00:09:51.248Z,50.875214
2023-05-13T00:10:51.234Z,50.875214
2023-05-13T00:11:51.247Z,50.875214
2023-05-13T00:12:51.210Z,50.875214
2023-05-13T00:13:51.202Z,50.875214
2023-05-13T00:14:51.185Z,50.875214
2023-05-13T00:15:51.279Z,50.875214
2023-05-13T00:16:51.230Z,50.875214
2023-05-13T00:17:51.228Z,50.875214
2023-05-13T00:18:51.220Z,50.875214
2023-05-13T00:19:51.148Z,50.875214
2023-05-13T00:20:51.143Z,50.875214
2023-05-13T00:21:51.132Z,50.875214
2023-05-13T00:22:51.105Z,50.875214
2023-05-13T00:23:51.093Z,50.876911
2023-05-13T00:24:51.093Z,50.876411
2023-05-13T00:25:51.104Z,50.876266
2023-05-13T00:26:51.064Z,50.875954
2023-05-13T00:27:51.053Z,50.875725
2023-05-13T00:28:51.055Z,50.875668
2023-05-13T00:29:51.035Z,50.875614
2023-05-13T00:30:51.046Z,50.875771
2023-05-13T00:31:51.037Z,50.875225
2023-05-13T00:32:51.037Z,50.875492
2023-05-13T00:33:50.997Z,50.875568
2023-05-13T00:34:50.996Z,50.875507
2023-05-13T00:35:50.986Z,50.875412
2023-05-13T00:36:50.972Z,50.875301
2023-05-13T00:37:50.962Z,50.875099
2023-05-13T00:38:50.950Z,50.875538
2023-05-13T00:39:50.966Z,50.875355
2023-05-13T00:40:50.944Z,50.875259
2023-05-13T00:41:50.910Z,50.875183
2023-05-13T00:42:50.975Z,50.875374
2023-05-13T00:43:50.902Z,50.875427
2023-05-13T00:44:50.906Z,50.875427
2023-05-13T00:45:50.915Z,50.875469
2023-05-13T00:46:50.867Z,50.875496
2023-05-13T00:47:51.009Z,50.875637
2023-05-13T00:48:50.866Z,50.875420
2023-05-13T00:49:50.861Z,50.875523
2023-05-13T00:50:50.830Z,50.875629
2023-05-13T00:51:50.818Z,50.875576
2023-05-13T00:52:50.820Z,50.875397
2023-05-13T00:53:50.833Z,50.875298
2023-05-13T00:54:50.807Z,50.875237
2023-05-13T00:55:50.816Z,50.875172
2023-05-13T00:56:50.772Z,50.875286
2023-05-13T00:57:50.761Z,50.875175
2023-05-13T00:58:50.784Z,50.875267
2023-05-13T00:59:50.749Z,50.875332
2023-05-13T01:00:50.789Z,50.875366
2023-05-13T01:01:50.731Z,50.875229
2023-05-13T01:02:50.801Z,50.875343
2023-05-13T01:03:50.724Z,50.875313
2023-05-13T01:04:50.698Z,50.875458
2023-05-13T01:05:50.699Z,50.875500
2023-05-13T01:06:50.673Z,50.875755
2023-05-13T01:07:50.653Z,50.875595
2023-05-13T01:08:50.668Z,50.875259
2023-05-13T01:09:50.632Z,50.875603
2023-05-13T01:10:50.636Z,50.875492
2023-05-13T01:11:50.627Z,50.875542
2023-05-13T01:12:50.606Z,50.875538
2023-05-13T01:13:50.601Z,50.875381
2023-05-13T01:14:50.586Z,50.875290
2023-05-13T01:15:50.581Z,50.875420
2023-05-13T01:16:50.606Z,50.875069
2023-05-13T01:17:50.595Z,50.875069
2023-05-13T01:18:50.612Z,50.875053
2023-05-13T01:19:50.544Z,50.875130
2023-05-13T01:20:50.524Z,50.875114
2023-05-13T01:21:50.517Z,50.875446
2023-05-13T01:22:50.522Z,50.875530
2023-05-13T01:23:50.502Z,50.875328
2023-05-13T01:24:50.521Z,50.875259
2023-05-13T01:25:50.477Z,50.875244
2023-05-13T01:26:50.469Z,50.875507
2023-05-13T01:27:50.454Z,50.875500
2023-05-13T01:28:51.459Z,50.875648
2023-05-13T01:29:50.447Z,50.875507
2023-05-13T01:30:50.480Z,50.875320
2023-05-13T01:31:50.429Z,50.875317
2023-05-13T01:32:50.476Z,50.875412
2023-05-13T01:33:50.406Z,50.875484
2023-05-13T01:34:50.388Z,50.875412
2023-05-13T01:35:50.382Z,50.875374
2023-05-13T01:36:50.379Z,50.875332
2023-05-13T01:37:50.370Z,50.875420
2023-05-13T01:38:50.362Z,50.875290
2023-05-13T01:39:50.347Z,50.875229
2023-05-13T01:40:50.344Z,50.875259
2023-05-13T01:41:50.342Z,50.875267
2023-05-13T01:42:50.315Z,50.875275
2023-05-13T01:43:50.304Z,50.875248
2023-05-13T01:44:50.301Z,50.875317
2023-05-13T01:45:50.298Z,50.875320
2023-05-13T01:46:50.543Z,50.875385
2023-05-13T01:47:50.325Z,50.875359
2023-05-13T01:48:50.257Z,50.875618
2023-05-13T01:49:50.241Z,50.875587
2023-05-13T01:50:50.262Z,50.875507
2023-05-13T01:51:50.226Z,50.875507
2023-05-13T01:52:50.213Z,50.875584
2023-05-13T01:53:50.215Z,50.875484
2023-05-13T01:54:50.192Z,50.875591
2023-05-13T01:55:50.208Z,50.875515
2023-05-13T01:56:50.177Z,50.875557
2023-05-13T01:57:50.171Z,50.875355
2023-05-13T01:58:50.142Z,50.875065
2023-05-13T01:59:51.188Z,50.874630
2023-05-13T02:00:50.140Z,50.874462
2023-05-13T02:01:50.140Z,50.874462
2023-05-13T02:02:50.178Z,50.875366
2023-05-13T02:03:50.215Z,50.875328
2023-05-13T02:04:50.106Z,50.875370
2023-05-13T02:05:50.085Z,50.875233
2023-05-13T02:06:50.076Z,50.875149
2023-05-13T02:07:50.064Z,50.875389
2023-05-13T02:08:50.051Z,50.875427
2023-05-13T02:09:50.053Z,50.875496
2023-05-13T02:10:50.041Z,50.875343
2023-05-13T02:11:50.050Z,50.875500
2023-05-13T02:12:50.031Z,50.875080
2023-05-13T02:13:50.019Z,50.875164
2023-05-13T02:14:50.014Z,50.875389
2023-05-13T02:15:49.991Z,50.875042
2023-05-13T02:16:50.163Z,50.875042
2023-05-13T02:17:50.003Z,50.875042
2023-05-13T02:18:50.038Z,50.875042
2023-05-13T02:19:49.948Z,50.875042
2023-05-13T02:20:49.947Z,50.875042
2023-05-13T02:21:49.939Z,50.875042
2023-05-13T02:22:49.914Z,50.875042
2023-05-13T02:23:49.912Z,50.875042
2023-05-13T02:24:49.900Z,50.875042
2023-05-13T02:25:49.884Z,50.875042
2023-05-13T02:26:49.891Z,50.875042
2023-05-13T02:27:49.886Z,50.875042
2023-05-13T02:28:49.876Z,50.875042
2023-05-13T02:29:49.847Z,50.875042
2023-05-13T02:30:49.848Z,50.875042
2023-05-13T02:31:49.837Z,50.875042
2023-05-13T02:32:49.882Z,50.875042
2023-05-13T02:33:49.805Z,50.875042
2023-05-13T02:34:49.806Z,50.875042
2023-05-13T02:35:49.795Z,50.875042
2023-05-13T02:36:49.776Z,50.875042
2023-05-13T02:37:49.784Z,50.875042
2023-05-13T02:38:49.756Z,50.875042
2023-05-13T02:39:49.744Z,50.875042
2023-05-13T02:40:49.746Z,50.875042
2023-05-13T02:41:49.741Z,50.875042
2023-05-13T02:42:49.738Z,50.875042
2023-05-13T02:43:49.728Z,50.875042
2023-05-13T02:44:49.707Z,50.875042
2023-05-13T02:45:49.720Z,50.875042
2023-05-13T02:46:49.685Z,50.875042
2023-05-13T02:47:49.709Z,50.875042
2023-05-13T02:48:49.671Z,50.875042
2023-05-13T02:49:50.660Z,50.875042
2023-05-13T02:50:49.637Z,50.875042
2023-05-13T02:51:49.648Z,50.875042
2023-05-13T02:52:49.626Z,50.875042
2023-05-13T02:53:49.613Z,50.875042
2023-05-13T02:54:49.628Z,50.875042
2023-05-13T02:55:49.602Z,50.875042
2023-05-13T02:56:49.596Z,50.875042
2023-05-13T02:57:49.580Z,50.875042
2023-05-13T02:58:49.558Z,50.875042
2023-05-13T02:59:49.557Z,50.875042
2023-05-13T03:00:49.554Z,50.875042
2023-05-13T03:01:49.586Z,50.875042
2023-05-13T03:02:49.550Z,50.875042
2023-05-13T03:03:49.542Z,50.875042
2023-05-13T03:04:49.502Z,50.875042
2023-05-13T03:05:49.520Z,50.875042
2023-05-13T03:06:49.491Z,50.875042
2023-05-13T03:07:49.476Z,50.875042
2023-05-13T03:08:49.462Z,50.875042
2023-05-13T03:09:49.474Z,50.875042
2023-05-13T03:10:49.465Z,50.875042
2023-05-13T03:11:49.428Z,50.875042
2023-05-13T03:12:49.425Z,50.875042
2023-05-13T03:13:49.419Z,50.875042
2023-05-13T03:14:49.424Z,50.875042
2023-05-13T03:15:49.445Z,50.875042
2023-05-13T03:16:49.388Z,50.875042
2023-05-13T03:17:49.400Z,50.875042
2023-05-13T03:18:49.386Z,50.875042
2023-05-13T03:19:49.372Z,50.875042
2023-05-13T03:20:49.347Z,50.875042
2023-05-13T03:21:49.336Z,50.875042
2023-05-13T03:22:49.329Z,50.875042
2023-05-13T03:23:49.314Z,50.875042
2023-05-13T03:24:49.319Z,50.875042
2023-05-13T03:25:49.295Z,50.875042
2023-05-13T03:26:49.291Z,50.875042
2023-05-13T03:27:49.275Z,50.875042
2023-05-13T03:28:49.273Z,50.875042
2023-05-13T03:29:49.265Z,50.875042
2023-05-13T03:30:49.251Z,50.875042
2023-05-13T03:31:49.278Z,50.875042
2023-05-13T03:32:49.320Z,50.875042
2023-05-13T03:33:49.225Z,50.875042
2023-05-13T03:34:49.224Z,50.875042
2023-05-13T03:35:49.202Z,50.875042
2023-05-13T03:36:49.202Z,50.875042
2023-05-13T03:37:49.175Z,50.875042
2023-05-13T03:38:49.180Z,50.875042
2023-05-13T03:39:49.164Z,50.875042
2023-05-13T03:40:49.156Z,50.875042
2023-05-13T03:41:49.138Z,50.875042
2023-05-13T03:42:49.122Z,50.875042
2023-05-13T03:43:49.129Z,50.875042
2023-05-13T03:44:49.114Z,50.875042
2023-05-13T03:45:49.096Z,50.875042
2023-05-13T03:46:49.138Z,50.875042
2023-05-13T03:47:49.105Z,50.875042
2023-05-13T03:48:49.083Z,50.875042
2023-05-13T03:49:49.063Z,50.875042
2023-05-13T03:50:49.056Z,50.875042
2023-05-13T03:51:49.042Z,50.875042
2023-05-13T03:52:49.038Z,50.875042
2023-05-13T03:53:49.020Z,50.875042
2023-05-13T03:54:49.115Z,50.875042
2023-05-13T03:55:48.995Z,50.875042
2023-05-13T03:56:48.981Z,50.875042
2023-05-13T03:57:49.015Z,50.875042
2023-05-13T03:58:48.979Z,50.875042
2023-05-13T03:59:48.954Z,50.875042
2023-05-13T04:00:48.967Z,50.875042
2023-05-13T04:01:49.063Z,50.875042
2023-05-13T04:02:49.054Z,50.875042
2023-05-13T04:03:48.987Z,50.875042
2023-05-13T04:04:49.011Z,50.875042
2023-05-13T04:05:49.013Z,50.875042
2023-05-13T04:06:48.894Z,50.875042
2023-05-13T04:07:48.873Z,50.875042
2023-05-13T04:08:48.920Z,50.875042
2023-05-13T04:09:48.896Z,50.875042
2023-05-13T04:10:48.877Z,50.875042
2023-05-13T04:11:48.858Z,50.875042
2023-05-13T04:12:48.838Z,50.875042
2023-05-13T04:13:48.854Z,50.875042
2023-05-13T04:14:48.800Z,50.875042
2023-05-13T04:15:48.806Z,50.875042
2023-05-13T04:16:48.860Z,50.875042
2023-05-13T04:17:48.829Z,50.875042
2023-05-13T04:18:48.851Z,50.875042
2023-05-13T04:19:48.793Z,50.875042
2023-05-13T04:20:48.778Z,50.875042
2023-05-13T04:21:48.736Z,50.875042
2023-05-13T04:22:48.737Z,50.875042
2023-05-13T04:23:48.725Z,50.875042
2023-05-13T04:24:48.696Z,50.875042
2023-05-13T04:25:48.707Z,50.875042
2023-05-13T04:26:48.678Z,50.875042
2023-05-13T04:27:48.672Z,50.875042
2023-05-13T04:28:48.659Z,50.875042
2023-05-13T04:29:48.651Z,50.875042
2023-05-13T04:30:48.643Z,50.875042
2023-05-13T04:31:48.681Z,50.875042
2023-05-13T04:32:48.640Z,50.875042
2023-05-13T04:33:48.610Z,50.875042
2023-05-13T04:34:48.599Z,50.875042
2023-05-13T04:35:48.595Z,50.875042
2023-05-13T04:36:48.574Z,50.875042
2023-05-13T04:37:48.562Z,50.875042
2023-05-13T04:38:48.550Z,50.875042
2023-05-13T04:39:48.544Z,50.875042
2023-05-13T04:40:49.550Z,50.875042
2023-05-13T04:41:48.526Z,50.875042
2023-05-13T04:42:48.511Z,50.875042
2023-05-13T04:43:48.523Z,50.875042
2023-05-13T04:44:48.507Z,50.875042
2023-05-13T04:45:48.488Z,50.875042
2023-05-13T04:46:48.565Z,50.875042
2023-05-13T04:47:48.500Z,50.875042
2023-05-13T04:48:48.753Z,50.875042
2023-05-13T04:49:48.448Z,50.875042
2023-05-13T04:50:48.453Z,50.875042
2023-05-13T04:51:48.430Z,50.875042
2023-05-13T04:52:48.413Z,50.875042
2023-05-13T04:53:48.405Z,50.875042
2023-05-13T04:54:48.397Z,50.875042
2023-05-13T04:55:48.367Z,50.875042
2023-05-13T04:56:48.373Z,50.875042
2023-05-13T04:57:48.354Z,50.875042
2023-05-13T04:58:48.358Z,50.875042
2023-05-13T04:59:48.333Z,50.875042
2023-05-13T05:00:48.336Z,50.875042
2023-05-13T05:01:48.366Z,50.875042
2023-05-13T05:02:48.362Z,50.875042
2023-05-13T05:03:48.361Z,50.875042
2023-05-13T05:04:48.281Z,50.875042
2023-05-13T05:05:48.278Z,50.875042
2023-05-13T05:06:48.262Z,50.875042
2023-05-13T05:07:48.263Z,50.875042
2023-05-13T05:08:48.259Z,50.875042
2023-05-13T05:09:48.236Z,50.875042
2023-05-13T05:10:49.308Z,50.875042
2023-05-13T05:11:48.211Z,50.875042
2023-05-13T05:12:48.213Z,50.875042
2023-05-13T05:13:48.192Z,50.875042
2023-05-13T05:14:48.185Z,50.875042
2023-05-13T05:15:48.179Z,50.875042
2023-05-13T05:16:48.309Z,50.875042
2023-05-13T05:17:48.279Z,50.875042
2023-05-13T05:18:48.288Z,50.875042
2023-05-13T05:19:48.134Z,50.875042
2023-05-13T05:20:48.125Z,50.875042
2023-05-13T05:21:48.111Z,50.875042
2023-05-13T05:22:48.111Z,50.875042
2023-05-13T05:23:48.090Z,50.875042
2023-05-13T05:24:48.117Z,50.875042
2023-05-13T05:25:49.801Z,50.875042
2023-05-13T05:26:49.064Z,50.875042
2023-05-13T05:27:48.056Z,50.875042
2023-05-13T05:28:48.041Z,50.875042
2023-05-13T05:29:48.028Z,50.875042
2023-05-13T05:30:48.023Z,50.875042
2023-05-13T05:31:48.097Z,50.875042
2023-05-13T05:32:48.048Z,50.875042
2023-05-13T05:33:47.982Z,50.875042
2023-05-13T05:34:47.979Z,50.875042
2023-05-13T05:35:47.965Z,50.875042
2023-05-13T05:36:47.962Z,50.875042
2023-05-13T05:37:47.954Z,50.875042
2023-05-13T05:38:47.928Z,50.875042
2023-05-13T05:39:47.929Z,50.875042
2023-05-13T05:40:47.939Z,50.875042
2023-05-13T05:41:47.914Z,50.875042
2023-05-13T05:42:47.894Z,50.875042
2023-05-13T05:43:47.894Z,50.875042
2023-05-13T05:44:47.894Z,50.875042
2023-05-13T05:45:47.897Z,50.875042
2023-05-13T05:46:47.851Z,50.875042
2023-05-13T05:47:47.867Z,50.875042
2023-05-13T05:48:47.993Z,50.875042
2023-05-13T05:49:47.821Z,50.875042
2023-05-13T05:50:47.816Z,50.875042
2023-05-13T05:51:47.806Z,50.875042
2023-05-13T05:52:47.788Z,50.875042
2023-05-13T05:53:47.784Z,50.875042
2023-05-13T05:54:47.767Z,50.875042
2023-05-13T05:55:47.768Z,50.875042
2023-05-13T05:56:47.758Z,50.875042
2023-05-13T05:57:47.752Z,50.875042
2023-05-13T05:58:47.741Z,50.875042
2023-05-13T05:59:47.737Z,50.875042
2023-05-13T06:00:47.773Z,50.875042
2023-05-13T06:01:47.693Z,50.875042
2023-05-13T06:02:47.804Z,50.875042
2023-05-13T06:03:47.717Z,50.875042
2023-05-13T06:04:47.696Z,50.875042
2023-05-13T06:05:47.670Z,50.875042
2023-05-13T06:06:47.679Z,50.875042
2023-05-13T06:07:47.644Z,50.875042
2023-05-13T06:08:47.629Z,50.875042
2023-05-13T06:09:47.632Z,50.875042
2023-05-13T06:10:47.618Z,50.875042
2023-05-13T06:11:47.600Z,50.875042
2023-05-13T06:12:47.590Z,50.875042
2023-05-13T06:13:47.587Z,50.875042
2023-05-13T06:14:47.576Z,50.875042
2023-05-13T06:15:47.631Z,50.875042
2023-05-13T06:16:47.555Z,50.875042
2023-05-13T06:17:47.569Z,50.875042
2023-05-13T06:18:47.579Z,50.875042
2023-05-13T06:19:47.531Z,50.875042
2023-05-13T06:20:47.511Z,50.875042
2023-05-13T06:21:47.511Z,50.875042
2023-05-13T06:22:47.499Z,50.875042
2023-05-13T06:23:47.484Z,50.875042
2023-05-13T06:24:47.465Z,50.875042
2023-05-13T06:25:47.461Z,50.875042
2023-05-13T06:26:47.448Z,50.875042
2023-05-13T06:27:47.457Z,50.875042
2023-05-13T06:28:47.484Z,50.875042
2023-05-13T06:29:47.433Z,50.875042
2023-05-13T06:30:47.418Z,50.875042
2023-05-13T06:31:47.455Z,50.875042
2023-05-13T06:33:00.279Z,50.875042
2023-05-13T06:33:49.380Z,50.875042
2023-05-13T06:34:47.396Z,50.875042
2023-05-13T06:35:47.369Z,50.875042
2023-05-13T06:36:47.351Z,50.875042
2023-05-13T06:37:47.365Z,50.875042
2023-05-13T06:38:47.364Z,50.875042
2023-05-13T06:39:47.327Z,50.875042
2023-05-13T06:40:47.318Z,50.875042
2023-05-13T06:41:47.317Z,50.875042
2023-05-13T06:42:47.310Z,50.875042
2023-05-13T06:43:47.292Z,50.875042
2023-05-13T06:44:47.290Z,50.875042
2023-05-13T06:45:47.284Z,50.875042
2023-05-13T06:46:47.281Z,50.875042
2023-05-13T06:47:47.296Z,50.875042
2023-05-13T06:48:47.233Z,50.875042
2023-05-13T06:49:47.225Z,50.875042
2023-05-13T06:50:47.229Z,50.875042
2023-05-13T06:51:47.238Z,50.875042
2023-05-13T06:52:47.205Z,50.875042
2023-05-13T06:53:47.205Z,50.875042
2023-05-13T06:54:47.187Z,50.875042
2023-05-13T06:55:47.171Z,50.875042
2023-05-13T06:56:47.178Z,50.875042
2023-05-13T06:57:47.197Z,50.875042
2023-05-13T06:58:47.148Z,50.875042
2023-05-13T06:59:47.135Z,50.875042
2023-05-13T07:00:47.201Z,50.875042
2023-05-13T07:01:47.139Z,50.875042
2023-05-13T07:02:47.125Z,50.875042
2023-05-13T07:03:47.126Z,50.875042
2023-05-13T07:04:47.080Z,50.875042
2023-05-13T07:05:47.071Z,50.875042
2023-05-13T07:06:47.068Z,50.875042
2023-05-13T07:07:47.077Z,50.875042
2023-05-13T07:08:47.038Z,50.875042
2023-05-13T07:09:47.020Z,50.875042
2023-05-13T07:10:47.058Z,50.875042
2023-05-13T07:11:47.026Z,50.875042
2023-05-13T07:12:46.997Z,50.875042
2023-05-13T07:13:46.987Z,50.875042
2023-05-13T07:14:46.975Z,50.875042
2023-05-13T07:15:46.967Z,50.875042
2023-05-13T07:16:46.949Z,50.875042
2023-05-13T07:17:47.041Z,50.875042
2023-05-13T07:18:46.964Z,50.875042
2023-05-13T07:19:46.934Z,50.875042
2023-05-13T07:20:46.925Z,50.875042
2023-05-13T07:21:46.915Z,50.875042
2023-05-13T07:22:46.899Z,50.875042
2023-05-13T07:23:46.887Z,50.875042
2023-05-13T07:24:46.901Z,50.875042
2023-05-13T07:25:46.861Z,50.875042
2023-05-13T07:26:46.877Z,50.875042
2023-05-13T07:27:46.844Z,50.875042
2023-05-13T07:28:46.817Z,50.875042
2023-05-13T07:29:46.826Z,50.875042
2023-05-13T07:30:46.857Z,50.875042
2023-05-13T07:31:46.794Z,50.875042
2023-05-13T07:32:46.884Z,50.875042
2023-05-13T07:33:46.773Z,50.875042
2023-05-13T07:34:46.780Z,50.875042
2023-05-13T07:35:46.744Z,50.875042
2023-05-13T07:36:46.774Z,50.875042
2023-05-13T07:37:46.739Z,50.875042
2023-05-13T07:38:46.728Z,50.875042
2023-05-13T07:39:46.720Z,50.875042
2023-05-13T07:40:46.704Z,50.875042
2023-05-13T07:41:46.684Z,50.875042
2023-05-13T07:42:46.694Z,50.875042
2023-05-13T07:43:46.686Z,50.875042
2023-05-13T07:44:46.665Z,50.875042
2023-05-13T07:45:46.662Z,50.875042
2023-05-13T07:46:46.707Z,50.875042
2023-05-13T07:47:46.711Z,50.875042
2023-05-13T07:48:46.629Z,50.875042
2023-05-13T07:49:46.631Z,50.875042
2023-05-13T07:50:46.600Z,50.875042
2023-05-13T07:51:46.604Z,50.875042
2023-05-13T07:52:46.595Z,50.875042
2023-05-13T07:53:46.564Z,50.875042
2023-05-13T07:54:46.558Z,50.875042
2023-05-13T07:55:46.552Z,50.875042
2023-05-13T07:56:46.566Z,50.875042
2023-05-13T07:57:46.549Z,50.875042
2023-05-13T07:58:46.526Z,50.875042
2023-05-13T07:59:46.547Z,50.875042
2023-05-13T08:00:46.504Z,50.875042
2023-05-13T08:01:46.493Z,50.875042
2023-05-13T08:02:46.540Z,50.875042
2023-05-13T08:03:46.691Z,50.875042
2023-05-13T08:04:46.524Z,50.875042
2023-05-13T08:05:46.449Z,50.875042
2023-05-13T08:06:46.454Z,50.875042
2023-05-13T08:07:46.436Z,50.875042
2023-05-13T08:08:46.436Z,50.875042
2023-05-13T08:09:46.412Z,50.875042
2023-05-13T08:10:46.410Z,50.875042
2023-05-13T08:11:46.404Z,50.875042
2023-05-13T08:12:46.381Z,50.875042
2023-05-13T08:13:46.383Z,50.875042
2023-05-13T08:14:48.250Z,50.875042
2023-05-13T08:15:46.352Z,50.875042
2023-05-13T08:16:46.476Z,50.875042
2023-05-13T08:17:46.400Z,50.875042
2023-05-13T08:18:46.342Z,50.875042
2023-05-13T08:19:46.304Z,50.875042
2023-05-13T08:20:46.307Z,50.875042
2023-05-13T08:21:46.324Z,50.875221
2023-05-13T08:22:46.280Z,50.875423
2023-05-13T08:23:46.387Z,50.875511
2023-05-13T08:24:46.277Z,50.875408
2023-05-13T08:25:46.266Z,50.875500
2023-05-13T08:26:46.260Z,50.875519
2023-05-13T08:27:46.245Z,50.875423
2023-05-13T08:28:46.231Z,50.875473
2023-05-13T08:29:46.216Z,50.875420
2023-05-13T08:30:46.214Z,50.875515
2023-05-13T08:31:46.281Z,50.875530
2023-05-13T08:32:46.247Z,50.875259
2023-05-13T08:33:46.170Z,50.875385
2023-05-13T08:34:46.169Z,50.875572
2023-05-13T08:35:46.177Z,50.875553
2023-05-13T08:36:46.144Z,50.875610
2023-05-13T08:37:46.150Z,50.875507
2023-05-13T08:38:46.135Z,50.875626
2023-05-13T08:39:46.131Z,50.875561
2023-05-13T08:40:46.124Z,50.875603
2023-05-13T08:41:46.101Z,50.875458
2023-05-13T08:42:46.085Z,50.875401
2023-05-13T08:43:46.082Z,50.875313
2023-05-13T08:44:46.077Z,50.875404
2023-05-13T08:45:46.089Z,50.875412
2023-05-13T08:46:46.043Z,50.875401
2023-05-13T08:47:46.079Z,50.875332
2023-05-13T08:48:46.029Z,50.875278
2023-05-13T08:49:46.021Z,50.875465
2023-05-13T08:50:46.019Z,50.875443
2023-05-13T08:51:46.007Z,50.875423
2023-05-13T08:52:46.002Z,50.875389
2023-05-13T08:53:46.001Z,50.875408
2023-05-13T08:54:45.982Z,50.875401
2023-05-13T08:55:45.970Z,50.875397
2023-05-13T08:56:45.953Z,50.875401
2023-05-13T08:57:45.940Z,50.875328
2023-05-13T08:58:46.027Z,50.875324
2023-05-13T08:59:45.921Z,50.875271
2023-05-13T09:00:45.914Z,50.875347
2023-05-13T09:01:46.038Z,50.875389
2023-05-13T09:02:45.954Z,50.875397
2023-05-13T09:03:45.891Z,50.875401
2023-05-13T09:04:45.911Z,50.875404
2023-05-13T09:05:45.858Z,50.875404
2023-05-13T09:06:45.847Z,50.875427
2023-05-13T09:07:45.857Z,50.875389
2023-05-13T09:08:45.847Z,50.875370
2023-05-13T09:09:45.817Z,50.875309
2023-05-13T09:10:45.809Z,50.875351
2023-05-13T09:11:45.804Z,50.875378
2023-05-13T09:12:45.804Z,50.875267
2023-05-13T09:13:45.789Z,50.875370
2023-05-13T09:14:45.771Z,50.875355
2023-05-13T09:15:45.836Z,50.875351
2023-05-13T09:16:45.757Z,50.875427
2023-05-13T09:17:45.845Z,50.875420
2023-05-13T09:18:45.770Z,50.875370
2023-05-13T09:19:45.859Z,50.875355
2023-05-13T09:20:45.717Z,50.875336
2023-05-13T09:21:45.744Z,50.875305
2023-05-13T09:22:45.710Z,50.875385
2023-05-13T09:23:45.680Z,50.875473
2023-05-13T09:24:45.670Z,50.875439
2023-05-13T09:25:45.659Z,50.875416
2023-05-13T09:26:45.675Z,50.875355
2023-05-13T09:27:45.649Z,50.875423
2023-05-13T09:28:45.629Z,50.875481
2023-05-13T09:29:45.619Z,50.875439
2023-05-13T09:30:46.782Z,50.875420
2023-05-13T09:31:46.652Z,50.875237
2023-05-13T09:32:45.632Z,50.875278
2023-05-13T09:33:45.582Z,50.875378
2023-05-13T09:34:45.570Z,50.875286
2023-05-13T09:35:45.574Z,50.875355
2023-05-13T09:36:45.563Z,50.875374
2023-05-13T09:37:45.537Z,50.875492
2023-05-13T09:38:45.530Z,50.875553
2023-05-13T09:39:45.522Z,50.875374
2023-05-13T09:40:45.523Z,50.875488
2023-05-13T09:41:45.511Z,50.875473
2023-05-13T09:42:45.501Z,50.875366
2023-05-13T09:43:45.481Z,50.875477
2023-05-13T09:44:45.484Z,50.875443
2023-05-13T09:45:45.486Z,50.875420
2023-05-13T09:46:45.520Z,50.875370
2023-05-13T09:47:45.459Z,50.875412
2023-05-13T09:48:46.444Z,50.875443
2023-05-13T09:49:45.448Z,50.875408
2023-05-13T09:50:45.433Z,50.875244
2023-05-13T09:51:45.406Z,50.875401
2023-05-13T09:52:45.402Z,50.875362
2023-05-13T09:53:45.392Z,50.875465
2023-05-13T09:54:45.384Z,50.875435
2023-05-13T09:55:45.384Z,50.875309
2023-05-13T09:56:45.362Z,50.875301
2023-05-13T09:57:45.349Z,50.875572
2023-05-13T09:58:45.347Z,50.875446
2023-05-13T09:59:45.349Z,50.875431
2023-05-13T10:00:45.641Z,50.875515
2023-05-13T10:01:45.493Z,50.875462
2023-05-13T10:02:45.349Z,50.875099
2023-05-13T10:03:45.333Z,50.875278
2023-05-13T10:04:45.297Z,50.875408
2023-05-13T10:05:45.278Z,50.875450
2023-05-13T10:06:45.266Z,50.875511
2023-05-13T10:07:45.255Z,50.875469
2023-05-13T10:08:45.245Z,50.875511
2023-05-13T10:09:45.247Z,50.875492
2023-05-13T10:10:45.224Z,50.875317
2023-05-13T10:11:45.221Z,50.875484
2023-05-13T10:12:45.212Z,50.875603
2023-05-13T10:13:45.218Z,50.875546
2023-05-13T10:14:45.205Z,50.875484
2023-05-13T10:15:45.182Z,50.875462
2023-05-13T10:16:45.193Z,50.875416
2023-05-13T10:17:45.186Z,50.875393
2023-05-13T10:18:45.203Z,50.875431
2023-05-13T10:19:45.134Z,50.875385
2023-05-13T10:20:46.130Z,50.875256
2023-05-13T10:21:45.120Z,50.875175
2023-05-13T10:22:45.109Z,50.875507
2023-05-13T10:23:45.117Z,50.875477
2023-05-13T10:24:45.091Z,50.875244
2023-05-13T10:25:45.090Z,50.875397
2023-05-13T10:26:45.078Z,50.875774
2023-05-13T10:27:45.078Z,50.875774
2023-05-13T10:28:45.061Z,50.875290
2023-05-13T10:29:45.042Z,50.875317
2023-05-13T10:30:45.034Z,50.875519
2023-05-13T10:31:45.042Z,50.875454
2023-05-13T10:32:45.037Z,50.875454
2023-05-13T10:33:45.014Z,50.875542
2023-05-13T10:34:45.009Z,50.875538
2023-05-13T10:35:44.972Z,50.875427
2023-05-13T10:36:44.975Z,50.875381
2023-05-13T10:37:44.986Z,50.875397
2023-05-13T10:38:44.977Z,50.875393
2023-05-13T10:39:44.936Z,50.875408
2023-05-13T10:40:44.933Z,50.875362
2023-05-13T10:41:44.916Z,50.875404
2023-05-13T10:42:44.936Z,50.875298
2023-05-13T10:43:44.902Z,50.875278
2023-05-13T10:44:44.889Z,50.875404
2023-05-13T10:45:44.885Z,50.875286
2023-05-13T10:46:44.957Z,50.875565
2023-05-13T10:47:44.965Z,50.875336
2023-05-13T10:48:44.897Z,50.874435
2023-05-13T10:49:44.843Z,50.874435
2023-05-13T10:50:44.832Z,50.875500
2023-05-13T10:51:44.826Z,50.875355
2023-05-13T10:52:44.804Z,50.875412
2023-05-13T10:53:44.818Z,50.875412
2023-05-13T10:54:44.784Z,50.875565
2023-05-13T10:55:44.783Z,50.875179
2023-05-13T10:56:44.791Z,50.875324
2023-05-13T10:57:44.759Z,50.875553
2023-05-13T10:58:44.768Z,50.875305
2023-05-13T10:59:44.749Z,50.875229
2023-05-13T11:00:44.740Z,50.875305
2023-05-13T11:01:44.769Z,50.875305
2023-05-13T11:02:44.755Z,50.875412
2023-05-13T11:03:44.794Z,50.875175
2023-05-13T11:04:44.692Z,50.875305
2023-05-13T11:05:44.697Z,50.875198
2023-05-13T11:06:44.671Z,50.875198
2023-05-13T11:07:44.670Z,50.875198
2023-05-13T11:08:44.669Z,50.875198
2023-05-13T11:09:44.647Z,50.875671
2023-05-13T11:10:44.693Z,50.875427
2023-05-13T11:11:44.625Z,50.875229
2023-05-13T11:12:44.621Z,50.875423
2023-05-13T11:13:44.611Z,50.875340
2023-05-13T11:14:44.598Z,50.875389
2023-05-13T11:15:45.735Z,50.875309
2023-05-13T11:16:45.622Z,50.875237
2023-05-13T11:17:44.635Z,50.875462
2023-05-13T11:18:44.620Z,50.875641
2023-05-13T11:19:44.547Z,50.875267
2023-05-13T11:20:52.077Z,50.875198
2023-05-13T11:21:46.536Z,50.875183
2023-05-13T11:22:44.522Z,50.874569
2023-05-13T11:23:44.512Z,50.874096
2023-05-13T11:24:44.518Z,50.874928